Time;durP1;ratioP1;P1;durP2;ratioP2;P2;SDS_P1;SDS_P2;PMS_P1;PMS_P2;Temp;Humidity;BMP_temperature;BMP_pressure;BME280_temperature;BME280_humidity;BME280_pressure;Samples;Min_cycle;Max_cycle;Signal;HPM_P1;HPM_P2
2024/02/26 00:00:34;;;;;;;4.47;2.53;;;6.30;99.90;;;;;;5006792;28;20049;-77
2024/02/26 00:03:00;;;;;;;5.10;2.58;;;6.40;99.90;;;;;;5010556;28;20036;-78
2024/02/26 00:05:26;;;;;;;4.63;2.05;;;6.40;99.90;;;;;;5010097;28;20040;-77
2024/02/26 00:07:52;;;;;;;7.00;2.08;;;6.40;99.90;;;;;;5013458;28;20029;-77
2024/02/26 00:10:18;;;;;;;5.28;2.53;;;6.40;99.90;;;;;;5013668;28;20045;-77
2024/02/26 00:12:43;;;;;;;5.82;2.38;;;6.40;99.90;;;;;;5014698;28;20195;-77
2024/02/26 00:15:10;;;;;;;4.55;2.35;;;6.40;99.90;;;;;;5012276;28;20110;-77
2024/02/26 00:17:36;;;;;;;4.10;2.50;;;6.30;99.90;;;;;;5013262;28;20071;-77
2024/02/26 00:20:04;;;;;;;4.45;2.33;;;6.30;99.90;;;;;;5015827;28;20543;-77
2024/02/26 00:22:30;;;;;;;4.82;2.53;;;6.30;99.90;;;;;;5013807;28;20052;-77
2024/02/26 00:24:56;;;;;;;4.88;2.33;;;6.30;99.90;;;;;;5014495;28;20091;-77
2024/02/26 00:27:22;;;;;;;6.03;2.42;;;6.30;99.90;;;;;;5014123;28;20030;-77
2024/02/26 00:29:47;;;;;;;6.07;1.98;;;6.40;99.90;;;;;;5015682;28;20112;-77
2024/02/26 00:32:13;;;;;;;4.18;1.77;;;6.40;99.90;;;;;;5012862;28;20132;-77
2024/02/26 00:34:39;;;;;;;5.78;2.17;;;6.40;99.90;;;;;;5015585;28;20033;-77
2024/02/26 00:37:05;;;;;;;7.45;1.60;;;6.50;99.90;;;;;;5013162;28;20660;-77
2024/02/26 00:39:30;;;;;;;4.43;1.80;;;6.40;99.90;;;;;;5014141;28;20037;-77
2024/02/26 00:41:56;;;;;;;4.43;1.88;;;6.30;99.90;;;;;;5015987;28;20430;-77
2024/02/26 00:44:22;;;;;;;6.25;1.83;;;6.30;99.90;;;;;;5014815;28;20447;-77
2024/02/26 00:46:48;;;;;;;5.72;1.98;;;6.30;99.90;;;;;;5011585;28;21376;-77
2024/02/26 00:49:13;;;;;;;4.70;2.17;;;6.30;99.90;;;;;;5015577;28;20590;-77
2024/02/26 00:51:39;;;;;;;4.47;1.95;;;6.30;99.90;;;;;;5014163;28;20136;-76
2024/02/26 00:54:05;;;;;;;4.72;2.30;;;6.30;99.90;;;;;;5013639;28;20124;-77
2024/02/26 00:56:30;;;;;;;5.75;2.58;;;6.30;99.90;;;;;;5013898;28;20064;-77
2024/02/26 00:58:56;;;;;;;5.72;2.63;;;6.30;99.90;;;;;;5012836;28;20665;-77
2024/02/26 01:01:21;;;;;;;5.50;2.97;;;6.10;99.90;;;;;;5015410;28;20476;-77
2024/02/26 01:03:47;;;;;;;6.70;2.90;;;6.20;99.90;;;;;;5015326;28;20053;-77
2024/02/26 01:06:13;;;;;;;5.28;2.50;;;6.20;99.90;;;;;;5013601;28;20057;-77
2024/02/26 01:08:39;;;;;;;5.72;3.08;;;6.20;99.90;;;;;;5012534;28;20029;-77
2024/02/26 01:11:05;;;;;;;5.75;2.55;;;6.00;99.90;;;;;;5014834;28;20049;-76
2024/02/26 01:13:30;;;;;;;8.40;2.78;;;6.10;99.90;;;;;;5013914;28;20479;-76
2024/02/26 01:15:56;;;;;;;5.57;2.85;;;6.20;99.90;;;;;;5013328;28;20038;-77
2024/02/26 01:18:23;;;;;;;5.82;2.38;;;6.10;99.90;;;;;;5013262;28;20037;-76
2024/02/26 01:20:48;;;;;;;4.70;2.40;;;6.10;99.90;;;;;;5013783;28;20032;-76
2024/02/26 01:23:14;;;;;;;3.88;2.00;;;6.10;99.90;;;;;;5013913;28;20957;-76
2024/02/26 01:25:40;;;;;;;5.68;2.42;;;6.10;99.90;;;;;;5014843;28;20034;-76
2024/02/26 01:28:06;;;;;;;4.47;2.30;;;6.10;99.90;;;;;;5009370;28;20029;-76
2024/02/26 01:30:31;;;;;;;6.72;4.15;;;6.10;99.90;;;;;;5011638;28;20065;-76
2024/02/26 01:32:57;;;;;;;5.53;2.70;;;6.00;99.90;;;;;;5011764;28;20151;-76
2024/02/26 01:35:23;;;;;;;5.55;2.83;;;6.00;99.90;;;;;;5011727;28;20032;-76
2024/02/26 01:37:48;;;;;;;4.75;2.47;;;5.90;99.90;;;;;;5014104;28;20042;-76
2024/02/26 01:40:19;;;;;;;7.15;3.05;;;6.00;99.90;;;;;;5012838;28;20035;-76
2024/02/26 01:42:45;;;;;;;4.20;2.20;;;6.10;99.90;;;;;;5013300;28;20116;-76
2024/02/26 01:45:21;;;;;;;4.13;2.47;;;6.10;99.90;;;;;;5012532;28;20029;-76
2024/02/26 01:47:49;;;;;;;5.97;3.35;;;5.90;99.90;;;;;;5012816;28;20101;-76
2024/02/26 01:50:15;;;;;;;5.88;3.13;;;5.90;99.90;;;;;;5013061;28;20029;-76
2024/02/26 01:52:40;;;;;;;6.00;3.25;;;5.90;99.90;;;;;;5012664;28;20048;-76
2024/02/26 01:55:08;;;;;;;5.88;2.85;;;6.00;99.90;;;;;;5014459;28;20191;-76
2024/02/26 01:57:34;;;;;;;5.38;2.67;;;6.00;99.90;;;;;;5011602;28;20041;-76
2024/02/26 02:00:00;;;;;;;5.32;2.67;;;6.10;99.90;;;;;;5011642;28;20041;-76
2024/02/26 02:02:26;;;;;;;7.28;3.40;;;6.20;99.90;;;;;;5014377;28;20106;-75
2024/02/26 02:04:52;;;;;;;6.88;2.80;;;6.20;99.90;;;;;;5011399;28;20492;-76
2024/02/26 02:07:18;;;;;;;6.40;3.05;;;6.10;99.90;;;;;;5013957;28;20088;-76
2024/02/26 02:09:45;;;;;;;9.30;3.63;;;6.10;99.90;;;;;;5011421;28;20172;-76
2024/02/26 02:12:11;;;;;;;5.00;2.60;;;6.10;99.90;;;;;;5013713;28;20055;-76
2024/02/26 02:14:36;;;;;;;7.15;3.33;;;6.20;99.90;;;;;;5013822;28;20042;-76
2024/02/26 02:17:02;;;;;;;5.38;2.75;;;6.20;99.90;;;;;;5013339;28;20064;-76
2024/02/26 02:19:28;;;;;;;7.25;3.17;;;6.20;99.90;;;;;;5012255;28;20026;-76
2024/02/26 02:21:53;;;;;;;6.57;3.28;;;6.10;99.90;;;;;;5013502;28;20518;-78
2024/02/26 02:24:19;;;;;;;7.72;3.60;;;6.10;99.90;;;;;;5015264;28;20113;-78
2024/02/26 02:26:45;;;;;;;4.43;2.40;;;6.10;99.90;;;;;;5016452;28;20112;-75
2024/02/26 02:29:12;;;;;;;4.78;2.47;;;6.10;99.90;;;;;;5017776;28;20042;-76
2024/02/26 02:31:38;;;;;;;3.75;2.13;;;6.20;99.90;;;;;;5015534;28;20045;-75
2024/02/26 02:34:03;;;;;;;4.55;2.42;;;6.20;99.90;;;;;;5015730;28;20029;-74
2024/02/26 02:36:29;;;;;;;6.47;2.55;;;6.20;99.90;;;;;;5017427;28;20037;-75
2024/02/26 02:38:55;;;;;;;5.20;3.00;;;6.10;99.90;;;;;;5016408;28;20037;-76
2024/02/26 02:41:21;;;;;;;6.55;2.85;;;6.10;99.90;;;;;;5015681;28;20103;-76
2024/02/26 02:43:47;;;;;;;4.15;2.17;;;6.10;99.90;;;;;;5016130;28;20062;-76
2024/02/26 02:46:13;;;;;;;5.75;2.70;;;6.10;99.90;;;;;;5015872;28;20121;-75
2024/02/26 02:48:38;;;;;;;7.53;3.30;;;6.10;99.90;;;;;;5013962;28;20121;-75
2024/02/26 02:51:05;;;;;;;5.18;3.15;;;6.10;99.90;;;;;;5017601;28;20042;-75
2024/02/26 02:53:30;;;;;;;4.90;2.85;;;6.00;99.90;;;;;;5016228;28;20029;-75
2024/02/26 02:55:56;;;;;;;7.32;3.28;;;6.10;99.90;;;;;;5016594;28;20075;-76
2024/02/26 02:58:22;;;;;;;5.05;2.65;;;6.20;99.90;;;;;;5017372;28;20044;-76
2024/02/26 03:00:47;;;;;;;6.97;2.78;;;6.20;99.90;;;;;;5016020;28;20728;-76
2024/02/26 03:03:13;;;;;;;5.40;2.75;;;6.20;99.90;;;;;;5016089;28;20034;-76
2024/02/26 03:05:39;;;;;;;6.70;2.75;;;6.00;99.90;;;;;;5015288;28;20027;-78
2024/02/26 03:08:04;;;;;;;5.95;2.88;;;5.90;99.90;;;;;;5015142;28;20043;-75
2024/02/26 03:10:30;;;;;;;5.63;2.95;;;5.80;99.90;;;;;;5016669;28;20053;-76
2024/02/26 03:12:56;;;;;;;4.78;2.63;;;5.80;99.90;;;;;;5016905;28;20032;-75
2024/02/26 03:15:22;;;;;;;5.68;3.55;;;5.90;99.90;;;;;;5015177;28;20038;-78
2024/02/26 03:17:47;;;;;;;4.45;2.80;;;5.90;99.90;;;;;;5017182;28;20451;-75
2024/02/26 03:20:13;;;;;;;5.95;3.28;;;6.00;99.90;;;;;;5015429;28;20033;-76
2024/02/26 03:22:39;;;;;;;6.82;2.72;;;6.10;99.90;;;;;;5015908;28;20122;-76
2024/02/26 03:25:06;;;;;;;4.38;2.28;;;6.10;99.90;;;;;;5016328;28;20044;-76
2024/02/26 03:27:32;;;;;;;4.75;2.60;;;6.10;99.90;;;;;;5015894;28;20080;-76
2024/02/26 03:29:58;;;;;;;5.60;2.60;;;6.10;99.90;;;;;;5015706;28;20124;-75
2024/02/26 03:32:23;;;;;;;5.65;2.50;;;6.00;99.90;;;;;;5017511;28;20045;-75
2024/02/26 03:34:49;;;;;;;6.55;2.70;;;6.00;99.90;;;;;;5013402;28;20946;-76
2024/02/26 03:37:15;;;;;;;6.68;3.17;;;6.00;99.90;;;;;;5016854;28;20489;-76
2024/02/26 03:39:40;;;;;;;5.70;2.88;;;5.90;99.90;;;;;;5015391;28;20037;-76
2024/02/26 03:42:06;;;;;;;8.48;2.90;;;5.80;99.90;;;;;;5015310;28;20035;-75
2024/02/26 03:44:32;;;;;;;5.65;2.67;;;5.80;99.90;;;;;;5016309;28;20037;-75
2024/02/26 03:46:57;;;;;;;5.78;3.30;;;5.80;99.90;;;;;;5015975;28;20041;-75
2024/02/26 03:49:23;;;;;;;7.07;3.05;;;5.80;99.90;;;;;;5014013;28;20037;-75
2024/02/26 03:51:49;;;;;;;5.32;3.30;;;5.80;99.90;;;;;;5016029;28;20033;-76
2024/02/26 03:54:15;;;;;;;6.18;3.20;;;5.80;99.90;;;;;;5014032;28;20042;-75
2024/02/26 03:56:40;;;;;;;4.88;2.35;;;5.80;99.90;;;;;;5016613;28;20037;-75
2024/02/26 03:59:06;;;;;;;6.05;2.78;;;5.90;99.90;;;;;;5016309;28;20749;-75
2024/02/26 04:01:32;;;;;;;6.32;3.05;;;5.80;99.90;;;;;;5013623;28;20033;-75
2024/02/26 04:03:58;;;;;;;5.85;3.15;;;5.70;99.90;;;;;;5008947;28;20046;-77
2024/02/26 04:06:23;;;;;;;5.57;3.03;;;5.70;99.90;;;;;;5011268;28;20388;-78
2024/02/26 04:08:49;;;;;;;7.20;3.78;;;5.70;99.90;;;;;;5010343;28;20052;-78
2024/02/26 04:11:18;;;;;;;10.48;3.15;;;5.60;99.90;;;;;;5009629;28;20077;-76
2024/02/26 04:13:49;;;;;;;6.40;2.78;;;5.60;99.90;;;;;;5011571;28;20689;-77
2024/02/26 04:16:16;;;;;;;7.28;3.80;;;5.50;99.90;;;;;;5009898;28;20035;-78
2024/02/26 04:18:42;;;;;;;5.57;3.20;;;5.60;99.90;;;;;;5006746;28;20044;-78
2024/02/26 04:21:08;;;;;;;6.50;3.20;;;5.50;99.90;;;;;;5009501;28;20034;-77
2024/02/26 04:23:33;;;;;;;5.28;3.05;;;5.50;99.90;;;;;;5008799;28;20431;-78
2024/02/26 04:25:59;;;;;;;5.43;2.75;;;5.50;99.90;;;;;;5010307;28;20033;-77
2024/02/26 04:28:29;;;;;;;4.22;2.65;;;5.50;99.90;;;;;;5012613;28;20034;-76
2024/02/26 04:30:55;;;;;;;6.15;3.53;;;5.60;99.90;;;;;;5009078;28;20487;-76
2024/02/26 04:33:21;;;;;;;6.65;2.97;;;5.60;99.90;;;;;;5010592;28;20625;-76
2024/02/26 04:35:47;;;;;;;7.13;3.55;;;5.60;99.90;;;;;;5011235;28;20033;-76
2024/02/26 04:38:13;;;;;;;5.35;2.80;;;5.60;99.90;;;;;;5008999;28;21391;-76
2024/02/26 04:40:38;;;;;;;6.13;3.03;;;5.60;99.90;;;;;;5011509;28;20034;-76
2024/02/26 04:43:04;;;;;;;5.18;2.80;;;5.50;99.90;;;;;;5011354;28;20508;-76
2024/02/26 04:45:30;;;;;;;5.97;2.70;;;5.40;99.90;;;;;;5007779;28;20034;-76
2024/02/26 04:47:55;;;;;;;5.97;2.55;;;5.30;99.90;;;;;;5008556;28;20037;-78
2024/02/26 04:50:21;;;;;;;6.95;2.95;;;5.30;99.90;;;;;;5007608;28;20060;-77
2024/02/26 04:52:46;;;;;;;6.22;2.90;;;5.40;99.90;;;;;;5006435;28;20061;-77
2024/02/26 04:55:12;;;;;;;6.03;3.15;;;5.30;99.90;;;;;;5008305;28;20040;-77
2024/02/26 04:57:38;;;;;;;8.68;3.25;;;5.30;99.90;;;;;;5006828;28;20029;-77
2024/02/26 05:00:05;;;;;;;6.43;3.00;;;5.30;99.90;;;;;;5005892;28;20028;-77
2024/02/26 05:02:33;;;;;;;5.63;2.90;;;5.30;99.90;;;;;;5007275;28;20051;-77
2024/02/26 05:04:59;;;;;;;4.72;2.17;;;5.40;99.90;;;;;;5006077;28;20033;-77
2024/02/26 05:07:24;;;;;;;5.30;2.42;;;5.50;99.90;;;;;;5008055;28;21161;-77
2024/02/26 05:09:50;;;;;;;4.35;2.75;;;5.50;99.90;;;;;;5007441;28;20712;-77
2024/02/26 05:12:16;;;;;;;5.95;2.97;;;5.60;99.90;;;;;;5009172;28;20045;-77
2024/02/26 05:14:42;;;;;;;6.75;3.80;;;5.60;99.90;;;;;;5010503;28;20041;-77
2024/02/26 05:17:08;;;;;;;5.65;2.90;;;5.60;99.90;;;;;;5011466;28;20364;-75
2024/02/26 05:19:34;;;;;;;6.50;3.15;;;5.50;99.90;;;;;;5008278;28;20070;-76
2024/02/26 05:21:59;;;;;;;4.80;2.45;;;5.30;99.90;;;;;;5011819;28;20069;-77
2024/02/26 05:24:25;;;;;;;4.63;2.50;;;5.30;99.90;;;;;;5007997;28;20784;-78
2024/02/26 05:26:51;;;;;;;4.90;2.63;;;5.30;99.90;;;;;;5008315;28;20033;-78
2024/02/26 05:29:17;;;;;;;5.70;2.20;;;5.30;99.90;;;;;;5008451;28;20033;-78
2024/02/26 05:31:43;;;;;;;7.30;2.55;;;5.30;99.90;;;;;;5006898;28;20045;-75
2024/02/26 05:34:08;;;;;;;5.07;2.38;;;5.40;99.90;;;;;;5006865;28;21498;-76
2024/02/26 05:36:34;;;;;;;5.55;2.70;;;5.50;99.90;;;;;;5007625;28;20648;-77
2024/02/26 05:39:01;;;;;;;4.97;2.85;;;5.50;99.90;;;;;;5006153;28;20042;-76
2024/02/26 05:41:27;;;;;;;4.20;2.40;;;5.60;99.90;;;;;;5007627;28;20037;-77
2024/02/26 05:43:53;;;;;;;6.03;2.80;;;5.70;99.90;;;;;;5007398;28;20033;-76
2024/02/26 05:46:20;;;;;;;4.35;2.10;;;5.70;99.90;;;;;;5004368;28;20689;-75
2024/02/26 05:48:52;;;;;;;4.43;2.53;;;5.80;99.90;;;;;;5008196;28;20175;-75
2024/02/26 05:51:17;;;;;;;5.07;2.40;;;5.80;99.90;;;;;;5008795;28;20127;-75
2024/02/26 05:53:43;;;;;;;5.20;2.83;;;5.70;99.90;;;;;;5009795;28;20567;-75
2024/02/26 05:56:09;;;;;;;5.05;2.55;;;5.60;99.90;;;;;;5010713;28;20039;-75
2024/02/26 05:58:35;;;;;;;5.70;2.50;;;5.60;99.90;;;;;;5010622;28;20042;-75
2024/02/26 06:01:00;;;;;;;6.38;3.05;;;5.60;99.90;;;;;;5014195;28;20084;-76
2024/02/26 06:03:26;;;;;;;4.90;2.45;;;5.70;99.90;;;;;;5013736;28;20739;-75
2024/02/26 06:05:52;;;;;;;4.65;2.63;;;5.70;99.90;;;;;;5011310;28;20606;-75
2024/02/26 06:08:18;;;;;;;4.35;2.22;;;5.70;99.90;;;;;;5006713;28;20120;-77
2024/02/26 06:10:44;;;;;;;3.95;2.20;;;5.70;99.90;;;;;;5008186;28;20050;-77
2024/02/26 06:13:09;;;;;;;6.35;2.42;;;5.70;99.90;;;;;;5012971;28;20051;-75
2024/02/26 06:15:35;;;;;;;4.82;2.30;;;5.70;99.90;;;;;;5015866;28;20041;-76
2024/02/26 06:18:01;;;;;;;4.60;2.35;;;5.70;99.90;;;;;;5011618;28;20026;-76
2024/02/26 06:20:26;;;;;;;6.15;2.28;;;5.60;99.90;;;;;;5012777;28;20439;-77
2024/02/26 06:22:52;;;;;;;7.88;2.38;;;5.70;99.90;;;;;;5021635;28;20064;-77
2024/02/26 06:25:18;;;;;;;6.05;2.33;;;5.80;99.90;;;;;;5012919;28;20105;-76
2024/02/26 06:27:43;;;;;;;9.57;2.90;;;5.70;99.90;;;;;;5011186;28;20435;-76
2024/02/26 06:30:11;;;;;;;5.45;2.63;;;5.90;99.90;;;;;;5014468;28;20033;-76
2024/02/26 06:32:37;;;;;;;4.00;2.20;;;5.90;99.90;;;;;;5010560;28;20061;-76
2024/02/26 06:35:11;;;;;;;5.03;2.47;;;5.90;99.90;;;;;;5011348;28;20029;-76
2024/02/26 06:37:37;;;;;;;5.90;2.60;;;5.80;99.90;;;;;;5013468;28;20104;-76
2024/02/26 06:40:03;;;;;;;4.28;2.20;;;5.60;99.90;;;;;;5011813;28;20108;-76
2024/02/26 06:42:30;;;;;;;9.63;3.00;;;5.70;99.90;;;;;;5011920;28;20033;-76
2024/02/26 06:44:56;;;;;;;5.85;2.40;;;5.80;99.90;;;;;;5020180;28;20118;-77
2024/02/26 06:47:21;;;;;;;5.32;2.70;;;5.80;99.90;;;;;;5015350;28;20030;-78
2024/02/26 06:49:47;;;;;;;5.07;2.67;;;5.90;99.90;;;;;;5014855;28;20337;-77
2024/02/26 06:52:13;;;;;;;5.47;4.00;;;5.90;99.90;;;;;;5014565;28;20045;-77
2024/02/26 06:54:38;;;;;;;4.68;3.10;;;5.90;99.90;;;;;;5013165;28;20040;-77
2024/02/26 06:57:04;;;;;;;5.00;2.85;;;6.00;99.90;;;;;;5010772;28;20029;-77
2024/02/26 06:59:30;;;;;;;5.75;3.05;;;6.00;99.90;;;;;;5009005;28;20040;-77
2024/02/26 07:01:55;;;;;;;5.90;3.10;;;6.00;99.90;;;;;;5011597;28;20061;-77
2024/02/26 07:04:21;;;;;;;6.82;2.40;;;6.20;99.90;;;;;;5010080;28;20065;-77
2024/02/26 07:06:47;;;;;;;4.78;2.47;;;6.20;99.90;;;;;;5008459;28;20138;-76
2024/02/26 07:09:13;;;;;;;7.47;2.47;;;6.20;99.90;;;;;;5009671;28;20056;-77
2024/02/26 07:11:42;;;;;;;6.18;2.67;;;6.20;99.90;;;;;;5006815;28;20037;-77
2024/02/26 07:14:12;;;;;;;4.72;2.35;;;6.10;99.90;;;;;;5009068;28;20029;-77
2024/02/26 07:16:38;;;;;;;5.72;2.42;;;6.10;99.90;;;;;;5011238;28;20084;-78
2024/02/26 07:19:04;;;;;;;4.20;2.40;;;6.10;99.90;;;;;;5009828;28;20029;-77
2024/02/26 07:21:30;;;;;;;4.35;2.25;;;6.10;99.90;;;;;;5008852;28;20060;-77
2024/02/26 07:23:56;;;;;;;5.10;2.78;;;6.00;99.90;;;;;;5011135;28;20038;-77
2024/02/26 07:26:24;;;;;;;4.90;2.63;;;6.00;99.90;;;;;;5009951;28;20040;-77
2024/02/26 07:28:50;;;;;;;8.25;2.85;;;6.10;99.90;;;;;;5008173;28;20645;-77
2024/02/26 07:31:17;;;;;;;7.13;3.00;;;6.10;99.90;;;;;;5008661;28;20041;-77
2024/02/26 07:33:42;;;;;;;6.10;3.05;;;6.10;99.90;;;;;;5010412;28;20029;-77
2024/02/26 07:36:08;;;;;;;6.25;3.00;;;6.10;99.90;;;;;;5008405;28;20594;-77
2024/02/26 07:38:34;;;;;;;6.18;2.65;;;6.10;99.90;;;;;;5009909;28;20049;-77
2024/02/26 07:41:02;;;;;;;7.47;2.55;;;6.10;99.90;;;;;;5007834;28;20026;-78
2024/02/26 07:43:28;;;;;;;5.53;2.50;;;6.20;99.90;;;;;;5007938;28;20041;-78
2024/02/26 07:45:53;;;;;;;6.75;2.88;;;6.20;99.90;;;;;;5010430;28;20037;-77
2024/02/26 07:48:19;;;;;;;5.78;3.08;;;6.30;99.90;;;;;;5008395;28;20026;-77
2024/02/26 07:50:45;;;;;;;7.78;2.83;;;6.30;99.90;;;;;;5008331;28;20029;-77
2024/02/26 07:53:10;;;;;;;6.90;2.80;;;6.30;99.90;;;;;;5010119;28;20048;-77
2024/02/26 07:55:36;;;;;;;6.57;2.95;;;6.30;99.90;;;;;;5008434;28;20034;-77
2024/02/26 07:58:01;;;;;;;5.95;2.95;;;6.30;99.90;;;;;;5008211;28;20108;-77
2024/02/26 08:00:27;;;;;;;6.60;2.78;;;6.30;99.90;;;;;;5009544;28;21263;-76
2024/02/26 08:02:53;;;;;;;4.78;2.90;;;6.30;99.90;;;;;;5009626;28;20495;-77
2024/02/26 08:05:19;;;;;;;5.47;3.33;;;6.30;99.90;;;;;;5009605;28;20123;-77
2024/02/26 08:07:44;;;;;;;4.75;2.78;;;6.30;99.90;;;;;;5011563;28;20190;-76
2024/02/26 08:10:13;;;;;;;4.97;3.03;;;6.30;99.90;;;;;;5013510;28;20049;-77
2024/02/26 08:12:39;;;;;;;6.07;3.13;;;6.30;99.90;;;;;;5012985;28;20045;-77
2024/02/26 08:15:05;;;;;;;6.78;3.78;;;6.30;99.90;;;;;;4994578;28;20029;-78
2024/02/26 08:17:32;;;;;;;7.75;4.75;;;6.30;99.90;;;;;;5005665;28;20762;-78
2024/02/26 08:19:59;;;;;;;8.82;4.85;;;6.30;99.90;;;;;;5008565;28;20064;-77
2024/02/26 08:22:24;;;;;;;7.80;4.82;;;6.30;99.90;;;;;;5005816;28;20057;-79
2024/02/26 08:24:50;;;;;;;8.15;5.40;;;6.40;99.90;;;;;;5010781;28;20109;-79
2024/02/26 08:27:16;;;;;;;9.27;5.53;;;6.50;99.90;;;;;;5012834;28;20041;-79
2024/02/26 08:29:41;;;;;;;8.05;4.72;;;6.50;99.90;;;;;;5010636;28;20033;-78
2024/02/26 08:32:07;;;;;;;9.13;5.55;;;6.60;99.90;;;;;;5009180;28;20081;-79
2024/02/26 08:34:33;;;;;;;7.47;4.22;;;6.70;99.90;;;;;;5011351;28;20383;-79
2024/02/26 08:36:59;;;;;;;6.90;4.22;;;6.70;99.90;;;;;;5011427;28;20033;-79
2024/02/26 08:39:25;;;;;;;9.13;4.85;;;6.50;99.90;;;;;;5010446;28;20032;-79
2024/02/26 08:41:51;;;;;;;8.00;4.70;;;6.50;99.90;;;;;;5009818;28;20607;-77
2024/02/26 08:44:17;;;;;;;8.23;5.13;;;6.50;99.90;;;;;;5010174;28;20041;-77
2024/02/26 08:46:43;;;;;;;7.55;4.47;;;6.30;99.90;;;;;;5010541;28;20076;-80
2024/02/26 08:49:08;;;;;;;8.40;4.20;;;6.50;99.90;;;;;;5013498;28;20155;-77
2024/02/26 08:51:34;;;;;;;8.88;4.68;;;6.60;99.90;;;;;;5019391;28;20142;-76
2024/02/26 08:54:00;;;;;;;8.88;5.47;;;6.50;99.90;;;;;;5023366;28;20041;-77
2024/02/26 08:56:25;;;;;;;7.78;4.10;;;6.50;99.90;;;;;;5025067;28;20041;-77
2024/02/26 08:58:53;;;;;;;5.97;3.92;;;6.60;99.90;;;;;;5021511;28;20045;-77
2024/02/26 09:01:19;;;;;;;7.38;4.50;;;6.60;99.90;;;;;;5016125;28;20554;-77
2024/02/26 09:03:45;;;;;;;7.68;4.47;;;6.80;99.90;;;;;;5016737;28;20037;-76
2024/02/26 09:06:11;;;;;;;8.38;5.28;;;6.80;99.90;;;;;;5009593;28;20174;-77
2024/02/26 09:08:37;;;;;;;9.43;4.90;;;6.90;99.90;;;;;;5009715;28;20079;-77
2024/02/26 09:11:03;;;;;;;7.10;4.25;;;6.80;99.90;;;;;;5010716;28;20053;-77
2024/02/26 09:13:29;;;;;;;7.25;4.75;;;6.90;99.90;;;;;;5011089;28;20887;-77
2024/02/26 09:15:55;;;;;;;7.55;4.70;;;6.80;99.90;;;;;;5011147;28;20033;-77
2024/02/26 09:18:21;;;;;;;9.45;4.85;;;6.80;99.90;;;;;;5012065;28;20106;-77
2024/02/26 09:20:46;;;;;;;6.78;4.40;;;6.90;99.90;;;;;;5011743;28;20607;-77
2024/02/26 09:23:12;;;;;;;7.45;4.32;;;6.90;99.90;;;;;;5008196;28;20372;-77
2024/02/26 09:25:38;;;;;;;7.07;4.47;;;7.00;99.90;;;;;;5011481;28;20042;-76
2024/02/26 09:28:04;;;;;;;7.95;4.57;;;7.10;99.90;;;;;;5009345;28;20022;-77
2024/02/26 09:30:29;;;;;;;9.93;3.95;;;7.20;99.90;;;;;;5009541;28;20107;-77
2024/02/26 09:32:55;;;;;;;6.38;3.97;;;7.30;99.90;;;;;;5012886;28;20112;-77
2024/02/26 09:35:24;;;;;;;6.85;4.47;;;7.40;99.90;;;;;;5011458;28;20099;-76
2024/02/26 09:37:49;;;;;;;12.27;5.10;;;7.20;99.90;;;;;;5010712;28;20080;-76
2024/02/26 09:40:15;;;;;;;9.05;4.38;;;7.00;99.90;;;;;;5012813;28;20126;-76
2024/02/26 09:42:45;;;;;;;7.88;4.07;;;7.30;99.90;;;;;;5007402;28;20049;-77
2024/02/26 09:45:18;;;;;;;7.72;3.80;;;7.40;99.90;;;;;;5010577;28;20696;-76
2024/02/26 09:47:45;;;;;;;8.77;4.35;;;7.50;99.90;;;;;;5011329;28;20600;-76
2024/02/26 09:50:13;;;;;;;5.85;3.80;;;7.40;99.90;;;;;;5013304;28;20527;-76
2024/02/26 09:52:41;;;;;;;6.60;3.72;;;7.20;99.90;;;;;;5012119;28;20037;-77
2024/02/26 09:55:11;;;;;;;6.15;3.63;;;7.20;99.90;;;;;;5015114;28;21436;-76
2024/02/26 09:57:38;;;;;;;7.75;4.07;;;7.30;99.90;;;;;;5010043;28;20037;-76
2024/02/26 10:00:07;;;;;;;8.32;4.07;;;7.40;99.90;;;;;;5010208;28;20029;-76
2024/02/26 10:02:35;;;;;;;7.18;4.20;;;7.40;99.90;;;;;;5007343;28;20034;-76
2024/02/26 10:05:05;;;;;;;10.23;4.13;;;7.50;99.90;;;;;;5009439;28;20052;-76
2024/02/26 10:07:32;;;;;;;10.13;4.20;;;7.60;99.90;;;;;;5010554;28;20045;-76
2024/02/26 10:09:58;;;;;;;6.78;3.90;;;7.60;99.90;;;;;;5009425;28;20059;-76
2024/02/26 10:12:25;;;;;;;6.43;4.32;;;7.60;99.90;;;;;;5006943;28;20041;-76
2024/02/26 10:14:51;;;;;;;7.53;3.85;;;7.50;99.90;;;;;;5013563;28;20025;-76
2024/02/26 10:17:20;;;;;;;7.97;4.50;;;7.70;99.90;;;;;;5014649;28;20778;-76
2024/02/26 10:19:45;;;;;;;8.40;4.28;;;7.80;99.90;;;;;;5014480;28;20737;-76
2024/02/26 10:22:11;;;;;;;8.02;4.22;;;7.90;99.90;;;;;;5012940;28;20896;-77
2024/02/26 10:24:37;;;;;;;6.20;3.90;;;7.90;99.90;;;;;;5014652;28;20037;-77
2024/02/26 10:27:03;;;;;;;6.47;4.25;;;8.00;99.90;;;;;;5014797;28;20046;-76
2024/02/26 10:29:29;;;;;;;8.05;5.07;;;8.10;99.90;;;;;;5014304;28;20030;-76
2024/02/26 10:31:55;;;;;;;6.93;4.40;;;8.10;99.90;;;;;;5014741;28;20053;-77
2024/02/26 10:34:21;;;;;;;9.52;4.80;;;8.20;99.90;;;;;;5014638;28;20049;-78
2024/02/26 10:36:47;;;;;;;10.23;4.30;;;8.10;99.90;;;;;;5014970;28;20426;-76
2024/02/26 10:39:13;;;;;;;8.27;4.00;;;8.00;99.90;;;;;;5014769;28;20033;-78
2024/02/26 10:41:41;;;;;;;7.28;4.30;;;8.00;99.90;;;;;;5013292;28;20105;-78
2024/02/26 10:44:10;;;;;;;7.20;4.13;;;7.90;99.90;;;;;;5015708;28;20033;-78
2024/02/26 10:46:37;;;;;;;7.50;4.72;;;7.90;99.90;;;;;;5015289;28;20150;-78
2024/02/26 10:49:02;;;;;;;8.55;3.90;;;8.00;99.90;;;;;;5017980;28;20037;-78
2024/02/26 10:51:30;;;;;;;8.18;4.32;;;8.00;99.90;;;;;;5018115;28;20045;-78
2024/02/26 10:53:58;;;;;;;7.85;4.35;;;7.90;99.90;;;;;;5023899;28;20064;-78
2024/02/26 10:56:29;;;;;;;6.55;4.75;;;7.90;99.90;;;;;;5017787;28;20060;-76
2024/02/26 10:58:58;;;;;;;10.82;5.07;;;7.60;99.90;;;;;;5017911;28;20061;-78
2024/02/26 11:01:26;;;;;;;7.57;5.63;;;7.60;99.90;;;;;;5017712;28;21017;-78
2024/02/26 11:03:53;;;;;;;7.50;5.38;;;7.70;99.90;;;;;;5017567;28;20581;-78
2024/02/26 11:06:20;;;;;;;12.27;6.45;;;7.70;99.90;;;;;;5016520;28;20067;-78
2024/02/26 11:08:50;;;;;;;8.73;5.07;;;7.70;99.90;;;;;;5017605;28;20072;-78
2024/02/26 11:11:20;;;;;;;9.70;5.05;;;7.60;99.90;;;;;;5018621;28;20045;-78
2024/02/26 11:13:50;;;;;;;6.05;4.03;;;7.60;99.90;;;;;;5016061;28;20056;-78
2024/02/26 11:16:21;;;;;;;7.53;4.72;;;7.70;99.90;;;;;;5012900;28;20033;-78
2024/02/26 11:18:48;;;;;;;7.70;4.13;;;7.80;99.90;;;;;;5011707;28;20032;-78
2024/02/26 11:21:27;;;;;;;6.78;4.38;;;7.80;99.90;;;;;;5014178;28;20033;-79
2024/02/26 11:23:53;;;;;;;7.30;4.05;;;7.70;99.90;;;;;;5020104;28;20048;-79
2024/02/26 11:26:21;;;;;;;8.15;4.13;;;7.80;99.90;;;;;;5013973;28;20728;-79
2024/02/26 11:28:48;;;;;;;6.10;3.72;;;7.80;99.90;;;;;;5019695;28;20711;-79
2024/02/26 11:31:14;;;;;;;7.22;4.20;;;7.80;99.90;;;;;;5020458;28;20358;-79
2024/02/26 11:33:40;;;;;;;7.22;4.57;;;7.90;99.90;;;;;;5020378;28;20052;-78
2024/02/26 11:36:11;;;;;;;7.45;4.82;;;8.00;99.90;;;;;;5013643;28;20029;-79
2024/02/26 11:38:37;;;;;;;6.65;3.95;;;8.00;99.90;;;;;;5016910;28;20075;-78
2024/02/26 11:41:05;;;;;;;7.15;4.30;;;7.90;99.90;;;;;;5015941;28;20050;-76
2024/02/26 11:43:49;;;;;;;7.20;4.38;;;7.90;99.90;;;;;;5017816;28;20021;-75
2024/02/26 11:46:32;;;;;;;5.90;4.25;;;7.90;99.90;;;;;;5010814;28;20514;-76
2024/02/26 11:49:03;;;;;;;7.38;4.25;;;7.90;99.90;;;;;;5014106;28;20495;-76
2024/02/26 11:51:34;;;;;;;6.72;4.18;;;7.80;99.90;;;;;;5015594;28;20039;-75
2024/02/26 11:54:00;;;;;;;7.13;4.10;;;7.90;99.90;;;;;;5017975;28;20053;-76
2024/02/26 11:56:32;;;;;;;8.02;4.03;;;8.00;99.90;;;;;;5015182;28;20029;-76
2024/02/26 11:59:09;;;;;;;6.47;4.10;;;8.00;99.90;;;;;;5014752;28;20060;-78
2024/02/26 12:01:47;;;;;;;7.50;4.25;;;8.00;99.90;;;;;;5009847;28;20026;-77
2024/02/26 12:04:29;;;;;;;9.70;4.90;;;7.90;99.90;;;;;;5007764;28;20029;-78
2024/02/26 12:07:00;;;;;;;6.88;4.18;;;7.90;99.90;;;;;;5005729;28;20191;-77
2024/02/26 12:09:33;;;;;;;7.45;4.63;;;8.00;99.90;;;;;;5007718;28;20191;-77
2024/02/26 12:12:01;;;;;;;7.63;4.38;;;7.90;99.90;;;;;;5008162;28;20439;-77
2024/02/26 12:14:28;;;;;;;7.40;4.78;;;7.90;99.90;;;;;;5006959;28;20552;-77
2024/02/26 12:16:55;;;;;;;6.75;4.40;;;7.90;99.90;;;;;;5006257;28;20526;-77
2024/02/26 12:19:22;;;;;;;8.65;5.03;;;7.90;99.90;;;;;;5007792;28;20037;-77
2024/02/26 12:21:53;;;;;;;10.00;4.80;;;7.90;99.90;;;;;;5008191;28;20044;-77
2024/02/26 12:24:20;;;;;;;6.25;4.40;;;8.00;99.90;;;;;;5006964;28;20029;-77
2024/02/26 12:26:45;;;;;;;8.60;5.25;;;7.80;99.90;;;;;;5004077;28;20033;-77
2024/02/26 12:29:12;;;;;;;9.88;5.30;;;7.80;99.90;;;;;;5011116;28;20702;-78
2024/02/26 12:31:39;;;;;;;7.07;4.47;;;7.70;99.90;;;;;;5007636;28;20067;-79
2024/02/26 12:34:06;;;;;;;7.97;4.72;;;7.60;99.90;;;;;;5006941;28;20505;-78
2024/02/26 12:36:34;;;;;;;7.43;4.82;;;7.70;99.90;;;;;;5009497;28;20199;-78
2024/02/26 12:39:00;;;;;;;9.75;5.65;;;7.80;99.90;;;;;;5014916;28;20034;-78
2024/02/26 12:41:26;;;;;;;8.50;5.05;;;7.70;99.90;;;;;;5011306;28;20557;-77
2024/02/26 12:43:53;;;;;;;8.88;5.82;;;7.70;99.90;;;;;;5012026;28;20048;-77
2024/02/26 12:46:19;;;;;;;8.20;5.47;;;7.80;99.90;;;;;;5017427;28;20055;-79
2024/02/26 12:48:46;;;;;;;7.45;4.88;;;7.80;99.90;;;;;;5023010;28;20147;-78
2024/02/26 12:51:14;;;;;;;7.95;4.72;;;7.90;99.90;;;;;;5025367;28;21333;-78
2024/02/26 12:53:39;;;;;;;8.57;4.00;;;7.90;99.90;;;;;;5020938;28;20026;-79